Time;durP1;ratioP1;P1;durP2;ratioP2;P2;SDS_P1;SDS_P2;PMS_P1;PMS_P2;Temp;Humidity;BMP_temperature;BMP_pressure;BME280_temperature;BME280_humidity;BME280_pressure;Samples;Min_cycle;Max_cycle;Signal;HPM_P1;HPM_P2
2023/01/03 00:04:01;;;;;;;4.07;3.78;;;;;;;3.22;100.00;102544.78;10380749;28;20444;-63
2023/01/03 00:09:04;;;;;;;4.38;3.97;;;;;;;3.06;100.00;102536.16;10381108;28;20092;-64
2023/01/03 00:14:04;;;;;;;4.00;3.70;;;;;;;3.09;100.00;102536.78;10364172;28;20080;-64
2023/01/03 00:19:09;;;;;;;5.07;4.55;;;;;;;3.09;100.00;102543.97;10380554;28;20505;-64
2023/01/03 00:24:09;;;;;;;9.88;4.90;;;;;;;2.97;100.00;102537.66;10381046;28;20065;-64
2023/01/03 00:29:10;;;;;;;12.10;5.43;;;;;;;2.89;100.00;102534.66;10380874;28;20108;-64
2023/01/03 00:34:11;;;;;;;9.05;4.93;;;;;;;2.85;100.00;102543.88;10379393;28;20034;-64
2023/01/03 00:39:11;;;;;;;5.70;4.40;;;;;;;2.86;100.00;102546.44;10379325;28;20045;-64
2023/01/03 00:44:12;;;;;;;10.57;6.00;;;;;;;3.08;100.00;102548.47;10379124;28;20080;-64
2023/01/03 00:49:12;;;;;;;6.15;5.53;;;;;;;3.28;100.00;102555.06;10363247;28;20029;-63
2023/01/03 00:54:13;;;;;;;12.57;5.95;;;;;;;3.29;100.00;102550.56;10379989;28;20073;-63
2023/01/03 00:59:14;;;;;;;5.60;5.10;;;;;;;3.35;100.00;102550.13;10380532;28;20038;-63
2023/01/03 01:04:20;;;;;;;8.98;6.78;;;;;;;3.41;100.00;102536.31;10378307;28;20034;-64
2023/01/03 01:09:27;;;;;;;5.75;4.43;;;;;;;3.50;100.00;102539.16;10380519;28;20025;-64
2023/01/03 01:14:28;;;;;;;10.75;6.28;;;;;;;3.52;100.00;102543.59;10380185;28;20037;-64
2023/01/03 01:19:31;;;;;;;10.75;5.45;;;;;;;3.52;100.00;102549.78;10379222;28;20080;-63
2023/01/03 01:24:31;;;;;;;10.32;6.28;;;;;;;3.52;100.00;102559.66;10379276;28;20125;-63
2023/01/03 01:29:32;;;;;;;8.25;6.25;;;;;;;3.53;100.00;102556.00;10378316;28;20030;-64
2023/01/03 01:34:32;;;;;;;18.65;6.25;;;;;;;3.52;100.00;102560.50;10378668;28;20045;-64
2023/01/03 01:39:33;;;;;;;9.85;6.15;;;;;;;3.39;100.00;102568.56;10379038;28;20053;-63
2023/01/03 01:44:53;;;;;;;7.95;5.93;;;;;;;3.29;100.00;102563.94;10378055;28;20038;-63
2023/01/03 01:50:02;;;;;;;7.50;6.75;;;;;;;3.26;100.00;102573.94;10378721;28;20371;-63
2023/01/03 01:55:04;;;;;;;7.28;5.60;;;;;;;3.11;100.00;102583.03;10377780;28;20034;-63
2023/01/03 02:00:06;;;;;;;8.40;5.93;;;;;;;2.87;100.00;102585.63;10359631;28;20417;-63
2023/01/03 02:05:09;;;;;;;7.75;6.97;;;;;;;2.82;100.00;102578.88;10375890;28;20037;-64
2023/01/03 02:10:09;;;;;;;8.48;5.68;;;;;;;2.84;100.00;102577.81;10375215;28;20065;-64
2023/01/03 02:15:22;;;;;;;7.13;6.50;;;;;;;2.84;100.00;102577.81;10376248;28;20099;-64
2023/01/03 02:20:36;;;;;;;8.35;7.53;;;;;;;2.74;100.00;102576.69;10376230;28;20056;-64
2023/01/03 02:25:55;;;;;;;15.73;8.18;;;;;;;2.58;100.00;102574.22;10360356;28;20385;-64
2023/01/03 02:31:06;;;;;;;12.38;9.43;;;;;;;2.50;100.00;102569.41;10378579;28;20044;-63
2023/01/03 02:36:25;;;;;;;11.57;7.95;;;;;;;2.53;100.00;102569.19;10384507;28;20378;-64
2023/01/03 02:41:34;;;;;;;13.82;9.45;;;;;;;2.53;100.00;102571.00;10383601;28;20485;-64
2023/01/03 02:46:46;;;;;;;11.05;8.50;;;;;;;2.38;100.00;102559.53;10359385;28;20026;-63
2023/01/03 02:51:54;;;;;;;21.15;9.85;;;;;;;2.35;100.00;102557.06;10377464;28;20038;-64
2023/01/03 02:57:06;;;;;;;26.35;12.73;;;;;;;2.53;100.00;102566.53;10375916;28;20034;-62
2023/01/03 03:02:07;;;;;;;16.05;12.35;;;;;;;2.64;100.00;102573.78;10374097;28;20030;-64
2023/01/03 03:07:35;;;;;;;14.85;11.05;;;;;;;2.60;100.00;102558.94;10375358;28;20033;-63
2023/01/03 03:17:58;;;;;;;17.60;11.32;;;;;;;2.40;100.00;102575.47;10373519;28;20053;-63
2023/01/03 03:28:35;;;;;;;23.02;12.32;;;;;;;2.33;100.00;102546.47;10360200;28;20121;-63
2023/01/03 03:33:40;;;;;;;15.57;10.88;;;;;;;2.27;100.00;102546.03;10358517;28;20034;-63
2023/01/03 03:38:42;;;;;;;16.17;10.27;;;;;;;2.23;100.00;102548.03;10374845;28;20034;-64
2023/01/03 03:54:36;;;;;;;15.35;11.75;;;;;;;2.20;100.00;102548.28;10373211;28;20050;-63
2023/01/03 03:59:37;;;;;;;19.10;12.77;;;;;;;2.22;100.00;102558.84;10373682;28;20386;-63
2023/01/03 04:04:41;;;;;;;24.95;16.48;;;;;;;2.39;100.00;102555.03;10360886;28;20030;-63
2023/01/03 04:09:42;;;;;;;21.10;15.80;;;;;;;2.55;100.00;102563.72;10355860;28;20038;-63
2023/01/03 04:14:42;;;;;;;26.63;17.92;;;;;;;2.62;100.00;102567.72;10340032;28;20034;-64
2023/01/03 04:19:43;;;;;;;29.70;21.05;;;;;;;2.77;100.00;102563.13;10373811;28;20069;-62
2023/01/03 04:24:43;;;;;;;26.45;19.75;;;;;;;2.83;100.00;102564.50;10374028;28;20026;-63
2023/01/03 04:29:43;;;;;;;25.38;20.20;;;;;;;2.83;100.00;102552.00;10373418;28;20363;-64
2023/01/03 04:34:44;;;;;;;25.73;20.08;;;;;;;2.82;100.00;102547.63;10372739;28;20099;-64
2023/01/03 04:39:44;;;;;;;26.17;20.55;;;;;;;2.84;100.00;102543.03;10373865;28;20038;-63
2023/01/03 04:44:45;;;;;;;29.10;22.98;;;;;;;2.87;100.00;102552.63;10384023;28;20049;-64
2023/01/03 04:49:46;;;;;;;30.02;20.42;;;;;;;2.86;100.00;102551.78;10381633;28;20199;-64
2023/01/03 04:54:46;;;;;;;29.15;22.05;;;;;;;2.91;100.00;102544.31;10380906;28;20100;-63
2023/01/03 04:59:46;;;;;;;30.00;23.15;;;;;;;3.02;100.00;102535.50;10380839;28;20038;-64
2023/01/03 05:04:47;;;;;;;27.58;23.42;;;;;;;3.02;100.00;102538.19;10379593;28;20072;-63
2023/01/03 05:09:47;;;;;;;29.13;23.40;;;;;;;3.07;100.00;102545.91;10379937;28;20041;-64
2023/01/03 05:14:48;;;;;;;23.02;19.80;;;;;;;3.02;100.00;102538.19;10379810;28;20527;-63
2023/01/03 05:30:27;;;;;;;32.83;24.83;;;;;;;3.42;100.00;102541.56;10378636;28;20037;-63
2023/01/03 05:35:27;;;;;;;24.85;22.05;;;;;;;3.56;100.00;102534.34;10378002;28;20030;-64
2023/01/03 05:40:28;;;;;;;34.00;23.15;;;;;;;3.68;100.00;102530.78;10376768;28;20042;-64
2023/01/03 05:45:28;;;;;;;31.15;23.30;;;;;;;3.78;100.00;102529.13;10378114;28;20065;-64
2023/01/03 05:50:28;;;;;;;33.60;24.40;;;;;;;3.84;100.00;102528.69;10376002;28;20429;-64
2023/01/03 05:55:29;;;;;;;29.60;22.30;;;;;;;3.88;100.00;102527.47;10376438;28;20034;-64
2023/01/03 06:00:29;;;;;;;40.10;25.50;;;;;;;3.91;100.00;102515.69;10376772;28;20402;-63
2023/01/03 06:05:30;;;;;;;30.35;23.17;;;;;;;3.96;100.00;102524.25;10376050;28;20064;-65
2023/01/03 06:10:30;;;;;;;33.42;21.55;;;;;;;3.98;100.00;102524.97;10377025;28;20053;-64
2023/01/03 06:15:30;;;;;;;34.13;24.17;;;;;;;4.03;100.00;102538.03;10376679;28;20053;-63
2023/01/03 06:20:31;;;;;;;26.95;21.67;;;;;;;4.10;100.00;102528.56;10385695;28;20085;-64
2023/01/03 06:25:31;;;;;;;30.58;23.42;;;;;;;4.13;100.00;102528.34;10375826;28;20069;-63
2023/01/03 06:30:33;;;;;;;31.90;22.23;;;;;;;4.15;100.00;102513.00;10375545;28;20072;-63
2023/01/03 06:35:33;;;;;;;27.50;20.15;;;;;;;4.17;100.00;102506.53;10374847;28;20119;-65
2023/01/03 06:40:33;;;;;;;26.98;21.42;;;;;;;4.27;100.00;102506.66;10375751;28;20041;-64
2023/01/03 06:56:12;;;;;;;24.85;17.35;;;;;;;4.49;100.00;102519.31;10375282;28;20397;-63
2023/01/03 07:01:12;;;;;;;23.83;16.08;;;;;;;4.57;100.00;102518.72;10374201;28;20033;-64
2023/01/03 07:06:13;;;;;;;19.25;16.08;;;;;;;4.63;100.00;102534.34;10356197;28;20029;-64
2023/01/03 07:11:13;;;;;;;25.08;15.63;;;;;;;4.71;100.00;102534.59;10374132;28;20394;-64
2023/01/03 07:16:14;;;;;;;22.00;16.67;;;;;;;4.76;100.00;102516.31;10375342;28;20038;-64
2023/01/03 07:21:15;;;;;;;21.73;13.25;;;;;;;4.75;100.00;102516.41;10356561;28;20133;-65
2023/01/03 07:26:15;;;;;;;20.75;15.40;;;;;;;4.78;100.00;102519.72;10374444;28;20046;-65
2023/01/03 07:31:15;;;;;;;19.13;15.23;;;;;;;4.81;100.00;102529.38;10374503;28;20119;-64
2023/01/03 07:36:16;;;;;;;22.35;17.73;;;;;;;4.95;100.00;102531.00;10372567;28;20464;-64
2023/01/03 07:41:16;;;;;;;20.67;16.85;;;;;;;5.02;100.00;102521.47;10373933;28;20084;-65
2023/01/03 07:46:20;;;;;;;25.73;18.17;;;;;;;5.11;100.00;102532.34;10373810;28;20033;-65
2023/01/03 07:51:21;;;;;;;28.63;21.05;;;;;;;5.19;100.00;102533.53;10390617;28;20026;-64
2023/01/03 07:56:23;;;;;;;30.70;18.13;;;;;;;5.23;100.00;102526.94;10357088;28;20386;-67
2023/01/03 08:01:24;;;;;;;26.50;19.92;;;;;;;5.25;100.00;102522.31;10374747;28;20038;-64
2023/01/03 08:06:24;;;;;;;21.73;17.95;;;;;;;5.28;100.00;102520.22;10374201;28;20394;-64
2023/01/03 08:16:44;;;;;;;28.48;22.75;;;;;;;5.45;100.00;102523.38;10378761;28;20038;-64
2023/01/03 08:21:44;;;;;;;24.45;17.67;;;;;;;5.47;100.00;102522.28;10382248;28;20062;-64
2023/01/03 08:26:44;;;;;;;33.30;22.58;;;;;;;5.60;100.00;102522.16;10381002;28;20382;-65
2023/01/03 08:31:48;;;;;;;31.85;23.58;;;;;;;5.72;100.00;102531.91;10381834;28;20046;-64
2023/01/03 08:36:50;;;;;;;36.33;25.63;;;;;;;5.79;100.00;102532.25;10385292;28;20034;-65
2023/01/03 08:42:02;;;;;;;39.65;24.92;;;;;;;5.93;100.00;102512.31;10362821;28;20462;-66
2023/01/03 08:47:03;;;;;;;39.28;26.25;;;;;;;6.01;100.00;102523.31;10378904;28;20132;-65
2023/01/03 08:52:04;;;;;;;29.55;24.98;;;;;;;6.08;100.00;102529.00;10362547;28;20040;-65
2023/01/03 08:57:04;;;;;;;37.80;26.88;;;;;;;6.11;100.00;102515.31;10379911;28;20053;-64
2023/01/03 09:02:05;;;;;;;41.55;26.25;;;;;;;6.23;100.00;102520.50;10379271;28;20501;-64
2023/01/03 09:07:05;;;;;;;42.58;28.95;;;;;;;6.32;100.00;102518.00;10379408;28;20038;-64
2023/01/03 09:12:06;;;;;;;37.38;27.38;;;;;;;6.27;100.00;102521.97;10363239;28;20034;-64
2023/01/03 09:17:06;;;;;;;37.03;27.13;;;;;;;6.39;100.00;102536.22;10378751;28;20490;-64
2023/01/03 09:22:06;;;;;;;24.45;18.98;;;;;;;6.51;100.00;102520.88;10380535;28;20141;-65
2023/01/03 09:27:07;;;;;;;43.13;23.92;;;;;;;6.53;100.00;102524.25;10377536;28;20069;-65
2023/01/03 09:32:07;;;;;;;21.27;18.15;;;;;;;6.69;100.00;102523.81;10378292;28;20145;-64
2023/01/03 09:37:08;;;;;;;30.60;20.23;;;;;;;6.68;100.00;102511.34;10380418;28;20034;-65
2023/01/03 09:47:35;;;;;;;31.02;20.02;;;;;;;6.77;100.00;102518.63;10365238;28;20394;-64
2023/01/03 10:03:43;;;;;;;28.02;21.70;;;;;;;6.97;100.00;102547.34;10362011;28;20485;-64
2023/01/03 10:09:15;;;;;;;26.35;18.98;;;;;;;6.98;100.00;102543.66;10392862;28;20029;-64
2023/01/03 10:14:15;;;;;;;31.60;18.95;;;;;;;7.06;100.00;102537.63;10376703;28;20049;-65
2023/01/03 10:19:39;;;;;;;30.25;19.75;;;;;;;7.10;100.00;102548.97;10376235;28;20054;-63
2023/01/03 10:25:04;;;;;;;27.35;18.90;;;;;;;7.10;100.00;102552.53;10376515;28;20335;-64
2023/01/03 10:30:05;;;;;;;29.58;21.42;;;;;;;7.02;100.00;102549.66;10374801;28;20050;-64
2023/01/03 10:35:22;;;;;;;34.00;23.23;;;;;;;7.11;100.00;102551.53;10342424;28;20040;-64
2023/01/03 10:40:43;;;;;;;31.30;23.88;;;;;;;7.13;100.00;102548.72;10373873;28;20405;-64
2023/01/03 10:45:51;;;;;;;35.88;24.10;;;;;;;7.18;100.00;102544.63;10376275;28;20469;-64
2023/01/03 10:50:52;;;;;;;50.65;26.88;;;;;;;7.19;100.00;102546.34;10381289;28;20120;-65
2023/01/03 10:55:53;;;;;;;31.60;21.88;;;;;;;7.28;100.00;102547.38;10357964;28;20143;-64
2023/01/03 11:01:08;;;;;;;28.13;21.48;;;;;;;7.42;100.00;102538.06;10357543;28;20124;-64
2023/01/03 11:06:11;;;;;;;26.95;20.00;;;;;;;7.57;100.00;102522.38;10375033;28;20117;-64
2023/01/03 11:11:30;;;;;;;22.98;15.15;;;;;;;7.57;100.00;102522.38;10373719;28;20075;-64
2023/01/03 11:16:31;;;;;;;19.10;15.55;;;;;;;7.59;100.00;102515.81;10375334;28;20069;-64
2023/01/03 11:21:31;;;;;;;14.57;13.05;;;;;;;7.55;100.00;102517.09;10373553;28;20072;-64
2023/01/03 11:26:50;;;;;;;20.98;13.18;;;;;;;7.63;100.00;102502.94;10373920;28;20038;-64
2023/01/03 11:31:57;;;;;;;27.08;15.95;;;;;;;7.70;100.00;102490.59;10374315;28;20030;-64
2023/01/03 11:37:03;;;;;;;22.33;15.20;;;;;;;7.85;100.00;102477.56;10374478;28;20038;-65
2023/01/03 11:42:08;;;;;;;14.73;10.63;;;;;;;8.01;100.00;102482.38;10374056;28;20049;-65
2023/01/03 11:47:29;;;;;;;11.68;10.00;;;;;;;8.00;100.00;102475.28;10371877;28;20026;-65
2023/01/03 11:52:44;;;;;;;11.68;8.70;;;;;;;8.02;100.00;102478.69;10365490;28;20404;-65
2023/01/03 11:57:56;;;;;;;13.90;10.30;;;;;;;7.99;100.00;102477.13;10381104;28;20026;-65
2023/01/03 12:03:07;;;;;;;18.35;9.88;;;;;;;8.01;100.00;102460.78;10381738;28;20478;-65
2023/01/03 12:08:17;;;;;;;21.42;9.23;;;;;;;8.15;100.00;102468.47;10380624;28;20030;-65
2023/01/03 12:13:33;;;;;;;22.25;8.13;;;;;;;8.34;100.00;102454.09;10380185;28;20037;-65
2023/01/03 12:18:45;;;;;;;10.45;8.02;;;;;;;8.24;100.00;102464.06;10380866;28;20053;-65
2023/01/03 12:24:12;;;;;;;16.15;7.07;;;;;;;8.13;100.00;102459.66;10379462;28;20053;-65
2023/01/03 12:29:19;;;;;;;7.40;5.47;;;;;;;8.12;100.00;102453.41;10366328;28;20026;-64
2023/01/03 12:34:29;;;;;;;11.70;7.45;;;;;;;8.25;100.00;102454.97;10379508;28;20057;-65
2023/01/03 12:39:47;;;;;;;8.88;6.80;;;;;;;8.38;100.00;102431.25;10379875;28;20096;-64
2023/01/03 12:44:50;;;;;;;19.00;7.20;;;;;;;8.41;100.00;102446.31;10380920;28;20036;-65
2023/01/03 12:50:14;;;;;;;8.20;6.35;;;;;;;8.56;100.00;102434.91;10363460;28;20417;-65
2023/01/03 12:55:22;;;;;;;6.80;6.05;;;;;;;8.66;100.00;102423.22;10379825;28;20109;-66
2023/01/03 13:00:51;;;;;;;8.55;4.90;;;;;;;8.85;100.00;102417.72;10379551;28;20076;-66
2023/01/03 13:05:59;;;;;;;8.88;6.57;;;;;;;9.03;100.00;102410.53;10383778;28;20034;-67
2023/01/03 13:11:02;;;;;;;11.23;5.15;;;;;;;8.92;100.00;102409.88;10361976;28;20048;-66
2023/01/03 13:16:36;;;;;;;7.13;6.25;;;;;;;8.66;100.00;102418.66;10362410;28;20030;-66
2023/01/03 13:21:52;;;;;;;10.20;4.93;;;;;;;8.51;100.00;102412.88;10377856;28;20128;-65
2023/01/03 13:27:15;;;;;;;20.88;7.15;;;;;;;8.69;100.00;102391.34;10379038;28;20382;-66
2023/01/03 13:32:21;;;;;;;12.07;5.70;;;;;;;8.73;100.00;102384.66;10378698;28;20049;-65
2023/01/03 13:37:28;;;;;;;12.33;6.27;;;;;;;8.85;100.00;102374.50;10379580;28;20113;-65
2023/01/03 13:42:30;;;;;;;11.63;6.80;;;;;;;8.98;100.00;102374.16;10377010;28;20030;-66
2023/01/03 13:47:38;;;;;;;10.30;5.20;;;;;;;8.99;100.00;102368.59;10377450;28;20120;-64
2023/01/03 13:52:57;;;;;;;6.55;4.75;;;;;;;8.95;100.00;102369.91;10376618;28;20385;-66
2023/01/03 13:57:58;;;;;;;17.17;6.45;;;;;;;8.88;100.00;102362.56;10378263;28;20034;-66
2023/01/03 14:03:13;;;;;;;7.10;4.97;;;;;;;8.67;100.00;102352.00;10360569;28;20038;-66
2023/01/03 14:08:16;;;;;;;12.48;5.50;;;;;;;8.59;100.00;102347.34;10377231;28;20042;-65
2023/01/03 14:13:19;;;;;;;12.32;7.43;;;;;;;8.52;100.00;102354.31;10377018;28;20030;-65
2023/01/03 14:18:26;;;;;;;12.13;4.85;;;;;;;8.54;100.00;102328.88;10376860;28;20049;-65
2023/01/03 14:23:26;;;;;;;6.45;4.55;;;;;;;8.43;100.00;102323.69;10376309;28;20050;-66
2023/01/03 14:28:30;;;;;;;8.15;6.00;;;;;;;8.34;100.00;102328.09;10358203;28;20478;-66
2023/01/03 14:33:40;;;;;;;13.00;5.07;;;;;;;8.33;100.00;102330.94;10358920;28;20088;-65
2023/01/03 14:38:56;;;;;;;10.88;6.38;;;;;;;8.19;100.00;102336.81;10364887;28;20045;-66
2023/01/03 14:44:01;;;;;;;9.45;7.00;;;;;;;8.27;100.00;102332.38;10375223;28;20026;-67
2023/01/03 14:49:04;;;;;;;6.32;5.53;;;;;;;8.15;100.00;102325.47;10376929;28;20034;-65
2023/01/03 14:54:05;;;;;;;7.43;5.65;;;;;;;8.14;100.00;102327.31;10374603;28;20026;-65
2023/01/03 14:59:05;;;;;;;9.93;5.85;;;;;;;8.06;100.00;102323.63;10390653;28;20042;-65
2023/01/03 15:04:06;;;;;;;7.53;5.57;;;;;;;8.04;100.00;102314.81;10374262;28;20053;-66
2023/01/03 15:09:18;;;;;;;7.78;4.40;;;;;;;7.89;100.00;102322.53;10377207;28;20022;-65
2023/01/03 15:14:19;;;;;;;18.05;7.25;;;;;;;7.89;100.00;102325.25;10374379;28;20041;-65
2023/01/03 15:19:24;;;;;;;10.52;6.28;;;;;;;7.87;100.00;102329.91;10377073;28;20064;-65
2023/01/03 15:24:24;;;;;;;14.30;6.68;;;;;;;7.97;100.00;102314.56;10379097;28;20056;-66
2023/01/03 15:29:26;;;;;;;7.80;5.55;;;;;;;7.98;100.00;102310.88;10375668;28;20355;-66
2023/01/03 15:34:27;;;;;;;9.23;5.57;;;;;;;7.89;100.00;102317.16;10373437;28;20038;-66
2023/01/03 15:39:48;;;;;;;16.27;5.45;;;;;;;7.99;100.00;102322.53;10374450;28;20033;-66
2023/01/03 15:44:48;;;;;;;17.80;6.45;;;;;;;8.01;100.00;102309.72;10373495;28;20036;-66
2023/01/03 15:49:51;;;;;;;6.75;4.75;;;;;;;7.98;100.00;102301.94;10374980;28;20038;-65
2023/01/03 15:54:51;;;;;;;6.57;4.55;;;;;;;7.96;100.00;102291.28;10373079;28;20032;-66
2023/01/03 15:59:53;;;;;;;8.90;5.00;;;;;;;8.00;100.00;102284.59;10373546;28;20038;-66
2023/01/03 16:04:53;;;;;;;9.10;6.10;;;;;;;7.90;100.00;102294.56;10373266;28;20397;-66
2023/01/03 16:09:54;;;;;;;10.73;4.90;;;;;;;7.93;100.00;102284.34;10372096;28;20042;-66
2023/01/03 16:14:54;;;;;;;17.33;5.65;;;;;;;7.96;100.00;102296.69;10373054;28;20038;-65
2023/01/03 16:19:54;;;;;;;16.60;5.45;;;;;;;7.88;100.00;102288.47;10374632;28;20045;-66
2023/01/03 16:24:55;;;;;;;11.90;5.00;;;;;;;7.83;100.00;102274.56;10356235;28;20073;-66
2023/01/03 16:29:55;;;;;;;9.63;4.93;;;;;;;7.94;100.00;102277.09;10373623;28;20096;-66
2023/01/03 16:34:59;;;;;;;13.63;5.38;;;;;;;7.91;100.00;102277.38;10374538;28;20041;-66
2023/01/03 16:40:00;;;;;;;11.23;6.43;;;;;;;7.94;100.00;102269.00;10381656;28;20217;-66
2023/01/03 16:45:00;;;;;;;9.32;4.53;;;;;;;7.89;100.00;102261.34;10380997;28;20168;-67
2023/01/03 16:50:21;;;;;;;16.85;5.25;;;;;;;7.96;100.00;102264.31;10384166;28;20038;-65
2023/01/03 16:55:31;;;;;;;13.23;5.05;;;;;;;8.00;100.00;102254.91;10385329;28;20561;-65
2023/01/03 17:00:32;;;;;;;13.43;5.03;;;;;;;8.08;100.00;102260.44;10380828;28;20029;-66
2023/01/03 17:05:34;;;;;;;12.40;5.32;;;;;;;8.06;100.00;102262.44;10362414;28;20034;-66
2023/01/03 17:10:37;;;;;;;17.63;6.07;;;;;;;8.12;100.00;102253.75;10362291;28;20446;-66
2023/01/03 17:15:38;;;;;;;9.20;5.57;;;;;;;8.18;100.00;102257.72;10361384;28;20462;-65
2023/01/03 17:20:38;;;;;;;4.80;2.85;;;;;;;8.14;100.00;102245.53;10379330;28;20049;-67
2023/01/03 17:25:38;;;;;;;11.63;4.03;;;;;;;8.24;100.00;102240.06;10378112;28;20061;-66
2023/01/03 17:30:39;;;;;;;25.55;5.63;;;;;;;8.29;100.00;102235.06;10377891;28;20059;-67
2023/01/03 17:35:39;;;;;;;9.75;2.95;;;;;;;8.28;100.00;102222.56;10383586;28;20041;-66
2023/01/03 17:40:42;;;;;;;13.32;4.45;;;;;;;8.37;100.00;102219.81;10379922;28;20026;-66
2023/01/03 17:51:01;;;;;;;7.85;5.55;;;;;;;8.39;100.00;102217.00;10377499;28;20445;-66
2023/01/03 17:56:02;;;;;;;10.30;4.40;;;;;;;8.37;100.00;102209.03;10377283;28;20030;-66
2023/01/03 18:01:03;;;;;;;6.85;4.45;;;;;;;8.33;100.00;102196.84;10378215;28;20073;-66
2023/01/03 18:06:14;;;;;;;6.38;5.57;;;;;;;8.28;100.00;102184.78;10376073;28;20029;-67
2023/01/03 18:11:17;;;;;;;10.85;4.75;;;;;;;8.31;100.00;102201.53;10377408;28;20088;-66
2023/01/03 18:16:19;;;;;;;11.20;4.47;;;;;;;8.35;100.00;102194.81;10376389;28;20029;-66
2023/01/03 18:21:24;;;;;;;13.30;4.60;;;;;;;8.28;100.00;102184.78;10375784;28;20161;-66
2023/01/03 18:26:34;;;;;;;19.83;6.70;;;;;;;8.35;100.00;102177.78;10359717;28;20061;-67
2023/01/03 18:31:35;;;;;;;14.50;5.93;;;;;;;8.29;100.00;102165.72;10359877;28;20030;-67
2023/01/03 18:36:40;;;;;;;5.38;3.33;;;;;;;8.25;100.00;102156.25;10376160;28;20400;-67
2023/01/03 18:41:41;;;;;;;9.60;3.63;;;;;;;8.14;100.00;102157.31;10374933;28;20033;-66
2023/01/03 18:46:41;;;;;;;11.50;4.63;;;;;;;8.10;100.00;102157.75;10358993;28;20034;-67
2023/01/03 18:51:42;;;;;;;6.65;4.45;;;;;;;8.04;100.00;102148.44;10375412;28;20330;-66
2023/01/03 18:56:42;;;;;;;18.40;5.95;;;;;;;8.14;100.00;102165.41;10359238;28;20133;-66
2023/01/03 19:01:42;;;;;;;6.53;5.18;;;;;;;8.19;100.00;102135.28;10374733;28;20389;-67
2023/01/03 19:06:44;;;;;;;6.18;4.63;;;;;;;8.18;100.00;102113.84;10375577;28;20034;-66
2023/01/03 19:11:44;;;;;;;24.92;5.13;;;;;;;8.13;100.00;102093.53;10374229;28;20149;-66
2023/01/03 19:16:45;;;;;;;18.98;7.07;;;;;;;8.18;100.00;102090.41;10343304;28;20175;-67
2023/01/03 19:21:45;;;;;;;11.68;4.78;;;;;;;8.25;100.00;102098.75;10375637;28;20053;-66
2023/01/03 19:26:51;;;;;;;8.32;4.38;;;;;;;8.25;100.00;102090.66;10358873;28;20057;-67
2023/01/03 19:31:54;;;;;;;10.82;5.57;;;;;;;8.24;100.00;102095.19;10377170;28;20128;-65
2023/01/03 19:36:54;;;;;;;4.68;3.80;;;;;;;8.31;100.00;102081.94;10366249;28;20045;-66
2023/01/03 19:47:17;;;;;;;10.63;4.10;;;;;;;8.26;100.00;102065.34;10381133;28;20033;-67
2023/01/03 19:52:17;;;;;;;9.82;5.05;;;;;;;8.28;100.00;102045.31;10387626;28;20389;-66
2023/01/03 19:57:22;;;;;;;5.13;3.53;;;;;;;8.34;100.00;102057.34;10376463;28;20034;-65
2023/01/03 20:02:39;;;;;;;9.70;5.10;;;;;;;8.30;100.00;102055.97;10377651;28;20373;-67
2023/01/03 20:07:40;;;;;;;;;;;;;;;8.27;100.00;102045.47;10379908;28;20037;-67
2023/01/03 20:12:40;;;;;;;6.72;4.43;;;;;;;8.28;100.00;102036.38;10380268;28;19917;-68
2023/01/03 20:17:41;;;;;;;4.90;4.40;;;;;;;8.32;100.00;102021.56;10380944;28;20046;-67
2023/01/03 20:22:42;;;;;;;4.15;3.67;;;;;;;8.42;100.00;102043.94;10382208;28;20093;-68
2023/01/03 20:27:44;;;;;;;8.23;3.88;;;;;;;8.45;100.00;102022.03;10364199;28;20080;-68
2023/01/03 20:32:45;;;;;;;11.18;4.13;;;;;;;8.44;100.00;102003.31;10381969;28;20034;-67
2023/01/03 20:37:56;;;;;;;8.98;4.63;;;;;;;8.44;100.00;102001.44;10381038;28;20034;-67
2023/01/03 20:43:00;;;;;;;7.90;3.88;;;;;;;8.46;100.00;101980.56;10365988;28;20048;-65
2023/01/03 20:48:01;;;;;;;5.75;3.22;;;;;;;8.60;100.00;101971.03;10381693;28;20033;-67
2023/01/03 20:53:01;;;;;;;17.85;4.00;;;;;;;8.43;100.00;101956.56;10379368;28;20041;-66
2023/01/03 20:58:02;;;;;;;12.48;3.72;;;;;;;8.34;100.00;101950.22;10378767;28;20117;-67
2023/01/03 21:03:02;;;;;;;8.25;3.63;;;;;;;8.30;100.00;101932.66;10381320;28;20048;-67
2023/01/03 21:13:22;;;;;;;8.82;4.72;;;;;;;8.31;100.00;101928.09;10365814;28;20092;-66
2023/01/03 21:18:23;;;;;;;6.03;4.22;;;;;;;8.27;100.00;101910.56;10379122;28;20141;-66
2023/01/03 21:23:23;;;;;;;6.85;3.25;;;;;;;8.29;100.00;101908.53;10379713;28;20034;-67
2023/01/03 21:28:24;;;;;;;5.10;3.45;;;;;;;8.37;100.00;101900.50;10379465;28;20057;-67
2023/01/03 21:33:24;;;;;;;5.05;3.20;;;;;;;8.38;100.00;101904.91;10378643;28;20033;-66
2023/01/03 21:38:24;;;;;;;14.32;4.05;;;;;;;8.46;100.00;101912.22;10378200;28;20042;-67
2023/01/03 21:43:25;;;;;;;11.75;3.95;;;;;;;8.58;100.00;101894.72;10361236;28;20230;-68
2023/01/03 21:48:25;;;;;;;5.70;3.40;;;;;;;8.47;100.00;101876.97;10378609;28;20034;-67
2023/01/03 21:53:26;;;;;;;11.43;4.45;;;;;;;8.49;100.00;101890.31;10378939;28;20080;-66
2023/01/03 21:58:26;;;;;;;9.82;3.78;;;;;;;8.43;100.00;101885.56;10378160;28;20437;-65
2023/01/03 22:08:45;;;;;;;10.35;2.90;;;;;;;8.28;100.00;101861.81;10385881;28;20037;-65
2023/01/03 22:13:47;;;;;;;14.88;4.25;;;;;;;8.19;100.00;101859.22;10377861;28;20394;-65
2023/01/03 22:18:47;;;;;;;10.65;4.25;;;;;;;8.10;100.00;101848.38;10360226;28;20061;-64
2023/01/03 22:23:48;;;;;;;5.32;2.83;;;;;;;8.07;100.00;101831.63;10359445;28;20045;-64
2023/01/03 22:28:48;;;;;;;5.82;3.20;;;;;;;8.07;100.00;101821.72;10378007;28;20034;-63
2023/01/03 22:33:49;;;;;;;16.17;5.28;;;;;;;8.04;100.00;101816.63;10376189;28;20402;-65
2023/01/03 22:38:51;;;;;;;7.15;4.93;;;;;;;8.08;100.00;101804.53;10359095;28;20030;-64
2023/01/03 22:43:53;;;;;;;6.55;3.03;;;;;;;8.08;100.00;101803.69;10376738;28;20033;-66
2023/01/03 22:48:53;;;;;;;12.85;5.13;;;;;;;8.08;100.00;101788.34;10376422;28;20354;-66
2023/01/03 22:53:54;;;;;;;8.38;4.55;;;;;;;8.07;100.00;101772.28;10374590;28;20041;-65
2023/01/03 22:58:54;;;;;;;5.13;3.90;;;;;;;8.08;100.00;101772.16;10375637;28;20041;-65
2023/01/03 23:03:58;;;;;;;19.60;5.65;;;;;;;8.12;100.00;101746.53;10374240;28;20038;-65
2023/01/03 23:08:59;;;;;;;9.68;4.95;;;;;;;8.16;100.00;101777.56;10373327;28;20394;-64
2023/01/03 23:14:00;;;;;;;17.15;4.30;;;;;;;8.09;100.00;101736.06;10375210;28;20117;-64
2023/01/03 23:19:01;;;;;;;6.25;4.20;;;;;;;8.10;100.00;101750.38;10373580;28;20103;-65
2023/01/03 23:24:02;;;;;;;13.55;4.65;;;;;;;8.10;100.00;101732.38;10373996;28;20042;-65
2023/01/03 23:29:02;;;;;;;9.38;3.28;;;;;;;8.11;100.00;101725.97;10357185;28;20439;-65
2023/01/03 23:34:02;;;;;;;0.30;0.30;;;;;;;8.06;100.00;101693.22;10375845;28;20382;-65
2023/01/03 23:39:03;;;;;;;0.28;0.28;;;;;;;8.11;100.00;101704.38;10374782;28;20125;-65
2023/01/03 23:44:04;;;;;;;0.40;0.40;;;;;;;8.14;100.00;101670.84;10380294;28;20030;-64
2023/01/03 23:49:04;;;;;;;0.40;0.40;;;;;;;8.20;100.00;101656.72;10391664;28;20042;-64
2023/01/03 23:54:05;;;;;;;1.30;1.27;;;;;;;8.20;100.00;101647.75;10383489;28;20065;-68
2023/01/03 23:59:05;;;;;;;0.30;0.30;;;;;;;8.22;100.00;101635.78;10381238;28;20124;-65
